createdAt,value
2022-09-09T00:01:49.142Z,100280.56
2022-09-09T00:04:22.105Z,100279.59
2022-09-09T00:07:07.153Z,100284.91
2022-09-09T00:09:56.703Z,100287.56
2022-09-09T00:12:45.368Z,100291.34
2022-09-09T00:15:23.365Z,100290.25
2022-09-09T00:18:25.474Z,100293.03
2022-09-09T00:21:08.944Z,100292.19
2022-09-09T00:23:40.551Z,100297.53
2022-09-09T00:26:16.484Z,100295.94
2022-09-09T00:28:59.306Z,100300.31
2022-09-09T00:31:31.519Z,100295.00
2022-09-09T00:34:14.196Z,100293.28
2022-09-09T00:36:42.571Z,100297.75
2022-09-09T00:39:24.693Z,100295.09
2022-09-09T00:42:21.646Z,100291.72
2022-09-09T00:45:18.693Z,100300.56
2022-09-09T00:47:52.377Z,100304.91
2022-09-09T00:50:34.101Z,100298.88
2022-09-09T00:53:17.265Z,100295.47
2022-09-09T00:55:53.306Z,100299.97
2022-09-09T00:58:20.176Z,100299.81
2022-09-09T01:01:19.779Z,100307.81
2022-09-09T01:03:55.113Z,100305.16
2022-09-09T01:06:39.840Z,100312.19
2022-09-09T01:09:38.575Z,100307.00
2022-09-09T01:12:26.069Z,100314.13
2022-09-09T01:15:02.189Z,100307.09
2022-09-09T01:17:36.885Z,100305.16
2022-09-09T01:20:31.470Z,100305.44
2022-09-09T01:22:58.365Z,100308.91
2022-09-09T01:25:43.542Z,100305.44
2022-09-09T01:28:16.774Z,100311.72
2022-09-09T01:30:43.884Z,100310.00
2022-09-09T01:33:19.560Z,100307.59
2022-09-09T01:35:58.175Z,100308.19
2022-09-09T01:38:26.344Z,100315.34
2022-09-09T01:40:54.384Z,100309.28
2022-09-09T01:43:22.780Z,100316.31
2022-09-09T01:45:52.248Z,100321.91
2022-09-09T01:48:20.431Z,100319.22
2022-09-09T01:50:47.413Z,100318.50
2022-09-09T01:53:18.214Z,100329.03
2022-09-09T01:56:10.313Z,100324.56
2022-09-09T01:58:55.314Z,100330.00
2022-09-09T02:01:40.636Z,100323.84
2022-09-09T02:04:22.134Z,100327.47
2022-09-09T02:06:52.243Z,100329.41
2022-09-09T02:09:22.547Z,100329.41
2022-09-09T02:11:57.528Z,100326.75
2022-09-09T02:14:31.768Z,100339.06
2022-09-09T02:17:05.711Z,100337.41
2022-09-09T02:19:40.546Z,100342.84
2022-09-09T02:22:07.580Z,100325.66
2022-09-09T02:24:37.613Z,100338.50
2022-09-09T02:27:08.738Z,100351.91
2022-09-09T02:29:46.168Z,100348.41
2022-09-09T02:32:17.270Z,100352.06
2022-09-09T02:34:49.198Z,100352.16
2022-09-09T02:37:21.393Z,100359.19
2022-09-09T02:39:49.019Z,100353.00
2022-09-09T02:42:16.265Z,100364.66
2022-09-09T02:44:43.337Z,100366.47
2022-09-09T02:47:29.506Z,100362.81
2022-09-09T02:50:14.812Z,100366.47
2022-09-09T02:52:50.551Z,100361.22
2022-09-09T02:55:41.179Z,100361.97
2022-09-09T02:58:13.280Z,100371.78
2022-09-09T03:00:41.727Z,100370.94
2022-09-09T03:03:10.603Z,100363.91
2022-09-09T03:05:37.937Z,100368.41
2022-09-09T03:08:06.652Z,100372.88
2022-09-09T03:10:34.605Z,100366.56
2022-09-09T03:13:01.679Z,100360.50
2022-09-09T03:15:31.438Z,100363.91
2022-09-09T03:17:59.419Z,100362.22
2022-09-09T03:20:27.850Z,100366.69
2022-09-09T03:22:55.590Z,100361.59
2022-09-09T03:25:26.933Z,100369.47
2022-09-09T03:27:56.293Z,100373.13
2022-09-09T03:30:28.317Z,100366.78
2022-09-09T03:32:56.550Z,100380.25
2022-09-09T03:35:23.564Z,100366.94
2022-09-09T03:37:50.610Z,100367.16
2022-09-09T03:40:17.713Z,100375.06
2022-09-09T03:42:44.594Z,100367.06
2022-09-09T03:45:12.041Z,100374.19
2022-09-09T03:47:39.113Z,100376.00
2022-09-09T03:50:10.088Z,100377.81
2022-09-09T03:52:38.840Z,100377.81
2022-09-09T03:55:07.038Z,100384.00
2022-09-09T03:57:37.187Z,100376.97
2022-09-09T04:00:06.359Z,100382.44
2022-09-09T04:02:33.394Z,100383.16
2022-09-09T04:05:00.966Z,100385.81
2022-09-09T04:07:29.493Z,100384.25
2022-09-09T04:09:56.617Z,100385.94
2022-09-09T04:12:23.746Z,100380.63
2022-09-09T04:14:50.750Z,100386.78
2022-09-09T04:17:18.703Z,100393.94
2022-09-09T04:19:45.656Z,100395.75
2022-09-09T04:22:12.674Z,100395.75
2022-09-09T04:24:39.699Z,100394.88
2022-09-09T04:27:06.742Z,100402.03
2022-09-09T04:29:33.658Z,100404.69
2022-09-09T04:32:00.583Z,100401.31
2022-09-09T04:34:27.553Z,100408.34
2022-09-09T04:36:54.532Z,100407.59
2022-09-09T04:39:21.466Z,100409.41
2022-09-09T04:41:48.553Z,100413.75
2022-09-09T04:44:15.704Z,100411.94
2022-09-09T04:46:42.788Z,100413.66
2022-09-09T04:49:14.500Z,100410.00
2022-09-09T04:51:42.047Z,100410.00
2022-09-09T04:54:08.916Z,100410.00
2022-09-09T04:56:35.875Z,100416.19
2022-09-09T04:59:04.250Z,100415.34
2022-09-09T05:01:31.121Z,100430.50
2022-09-09T05:03:58.017Z,100429.63
2022-09-09T05:06:25.432Z,100422.72
2022-09-09T05:08:52.556Z,100434.97
2022-09-09T05:11:25.455Z,100435.81
2022-09-09T05:13:52.977Z,100433.03
2022-09-09T05:16:20.680Z,100440.06
2022-09-09T05:18:48.409Z,100437.13
2022-09-09T05:21:16.892Z,100441.50
2022-09-09T05:23:44.054Z,100443.19
2022-09-09T05:26:17.750Z,100444.88
2022-09-09T05:28:45.349Z,100446.59
2022-09-09T05:31:14.376Z,100449.97
2022-09-09T05:33:44.258Z,100447.31
2022-09-09T05:36:16.261Z,100456.03
2022-09-09T05:38:43.640Z,100459.44
2022-09-09T05:41:17.013Z,100461.13
2022-09-09T05:43:51.078Z,100468.88
2022-09-09T05:46:21.462Z,100468.75
2022-09-09T05:48:52.178Z,100470.56
2022-09-09T05:51:25.460Z,100467.06
2022-09-09T05:54:01.632Z,100473.97
2022-09-09T05:56:30.178Z,100485.34
2022-09-09T05:58:57.726Z,100482.66
2022-09-09T06:01:33.084Z,100485.47
2022-09-09T06:04:00.262Z,100484.63
2022-09-09T06:06:31.687Z,100495.28
2022-09-09T06:08:59.579Z,100495.28
2022-09-09T06:11:29.426Z,100492.59
2022-09-09T06:13:56.456Z,100505.91
2022-09-09T06:16:26.059Z,100501.44
2022-09-09T06:18:54.527Z,100503.25
2022-09-09T06:21:27.303Z,100506.06
2022-09-09T06:23:58.994Z,100516.72
2022-09-09T06:26:31.814Z,100520.19
2022-09-09T06:28:59.419Z,100519.38
2022-09-09T06:31:31.864Z,100517.53
2022-09-09T06:34:00.205Z,100532.56
2022-09-09T06:36:32.469Z,100523.84
2022-09-09T06:39:00.237Z,100523.84
2022-09-09T06:41:29.562Z,100532.16
2022-09-09T06:43:59.179Z,100537.50
2022-09-09T06:46:32.513Z,100517.03
2022-09-09T06:49:01.095Z,100536.66
2022-09-09T06:51:37.501Z,100536.91
2022-09-09T06:54:05.110Z,100542.22
2022-09-09T06:56:36.192Z,100542.22
2022-09-09T06:59:05.202Z,100547.66
2022-09-09T07:01:34.598Z,100540.75
2022-09-09T07:04:03.185Z,100539.06
2022-09-09T07:06:32.453Z,100539.91
2022-09-09T07:09:07.778Z,100539.16
2022-09-09T07:11:40.526Z,100539.31
2022-09-09T07:14:08.293Z,100534.56
2022-09-09T07:16:38.276Z,100543.03
2022-09-09T07:19:05.890Z,100552.97
2022-09-09T07:21:33.856Z,100551.13
2022-09-09T07:24:01.419Z,100553.78
2022-09-09T07:26:30.733Z,100568.09
2022-09-09T07:28:58.514Z,100575.31
2022-09-09T07:31:27.434Z,100576.31
2022-09-09T07:33:54.829Z,100580.91
2022-09-09T07:36:33.508Z,100580.06
2022-09-09T07:39:04.384Z,100586.34
2022-09-09T07:41:41.785Z,100597.97
2022-09-09T07:44:12.914Z,100594.44
2022-09-09T07:46:41.058Z,100595.41
2022-09-09T07:49:09.882Z,100605.09
2022-09-09T07:51:42.352Z,100602.44
2022-09-09T07:54:14.669Z,100606.91
2022-09-09T07:56:42.894Z,100613.19
2022-09-09T07:59:10.835Z,100614.97
2022-09-09T08:01:41.125Z,100615.84
2022-09-09T08:04:11.005Z,100632.66
2022-09-09T08:06:40.889Z,100637.38
2022-09-09T08:09:09.289Z,100636.53
2022-09-09T08:11:39.157Z,100648.13
2022-09-09T08:14:12.388Z,100658.78
2022-09-09T08:16:42.677Z,100664.13
2022-09-09T08:19:10.039Z,100665.06
2022-09-09T08:21:40.521Z,100677.41
2022-09-09T08:24:09.217Z,100681.03
2022-09-09T08:26:41.546Z,100683.81
2022-09-09T08:29:11.641Z,100685.75
2022-09-09T08:31:41.410Z,100688.50
2022-09-09T08:34:10.478Z,100688.50
2022-09-09T08:36:40.399Z,100699.16
2022-09-09T08:39:09.993Z,100707.25
2022-09-09T08:42:08.000Z,100704.69
2022-09-09T08:44:48.217Z,100715.34
2022-09-09T08:47:37.909Z,100717.19
2022-09-09T08:50:25.918Z,100720.66
2022-09-09T08:53:03.717Z,100724.31
2022-09-09T08:55:40.801Z,100726.97
2022-09-09T08:58:15.526Z,100738.56
2022-09-09T09:00:48.614Z,100735.91
2022-09-09T09:03:38.777Z,100732.38
2022-09-09T09:06:11.659Z,100734.22
2022-09-09T09:08:45.298Z,100744.00
2022-09-09T09:11:13.009Z,100744.75
2022-09-09T09:13:44.023Z,100743.88
2022-09-09T09:16:36.686Z,100744.63
2022-09-09T09:19:04.874Z,100747.19
2022-09-09T09:21:45.123Z,100746.47
2022-09-09T09:24:33.773Z,100752.53
2022-09-09T09:27:13.938Z,100749.84
2022-09-09T09:30:03.746Z,100751.44
2022-09-09T09:32:35.336Z,100759.53
2022-09-09T09:35:09.315Z,100761.25
2022-09-09T09:37:37.134Z,100764.63
2022-09-09T09:40:12.974Z,100768.06
2022-09-09T09:43:00.176Z,100769.88
2022-09-09T09:45:30.616Z,100777.84
2022-09-09T09:48:07.759Z,100779.00
2022-09-09T09:50:35.901Z,100793.41
2022-09-09T09:53:08.155Z,100787.34
2022-09-09T09:55:38.351Z,100791.72
2022-09-09T09:58:07.415Z,100794.25
2022-09-09T10:00:38.418Z,100786.06
2022-09-09T10:03:15.063Z,100791.91
2022-09-09T10:05:47.408Z,100798.81
2022-09-09T10:08:17.998Z,100792.41
2022-09-09T10:10:54.071Z,100799.44
2022-09-09T10:13:42.096Z,100800.19
2022-09-09T10:16:22.232Z,100811.69
2022-09-09T10:19:14.463Z,100806.25
2022-09-09T10:22:12.603Z,100816.81
2022-09-09T10:25:17.655Z,100812.31
2022-09-09T10:28:22.184Z,100820.06
2022-09-09T10:30:52.052Z,100820.06
2022-09-09T10:33:42.051Z,100816.69
2022-09-09T10:36:21.812Z,100820.84
2022-09-09T10:39:03.702Z,100824.47
2022-09-09T10:41:56.111Z,100820.72
2022-09-09T10:44:31.795Z,100820.72
2022-09-09T10:47:16.923Z,100828.72
2022-09-09T10:49:50.702Z,100818.91
2022-09-09T10:52:28.807Z,100834.97
2022-09-09T10:54:55.691Z,100835.22
2022-09-09T10:57:51.207Z,100823.72
2022-09-09T11:00:32.604Z,100828.19
2022-09-09T11:03:04.008Z,100835.22
2022-09-09T11:05:47.280Z,100841.38
2022-09-09T11:08:21.156Z,100841.28
2022-09-09T11:11:12.358Z,100837.78
2022-09-09T11:13:57.173Z,100842.97
2022-09-09T11:16:43.144Z,100849.88
2022-09-09T11:19:36.248Z,100847.22
2022-09-09T11:22:34.982Z,100849.88
2022-09-09T11:25:28.183Z,100846.50
2022-09-09T11:28:13.653Z,100853.31
2022-09-09T11:31:17.863Z,100853.31
2022-09-09T11:34:09.688Z,100855.00
2022-09-09T11:36:57.483Z,100860.31
2022-09-09T11:39:55.400Z,100867.38
2022-09-09T11:42:25.526Z,100871.97
2022-09-09T11:44:54.522Z,100874.50
2022-09-09T11:47:33.104Z,100871.84
2022-09-09T11:50:11.501Z,100877.16
2022-09-09T11:52:39.774Z,100879.97
2022-09-09T11:55:34.338Z,100871.97
2022-09-09T11:58:05.298Z,100880.91
2022-09-09T12:00:46.836Z,100874.72
2022-09-09T12:03:44.826Z,100881.84
2022-09-09T12:06:14.800Z,100885.38
2022-09-09T12:08:46.825Z,100890.81
2022-09-09T12:11:26.401Z,100889.84
2022-09-09T12:13:59.424Z,100885.50
2022-09-09T12:16:35.747Z,100887.41
2022-09-09T12:19:22.114Z,100893.47
2022-09-09T12:22:32.168Z,100883.78
2022-09-09T12:25:11.400Z,100893.56
2022-09-09T12:27:52.531Z,100889.31
2022-09-09T12:30:19.471Z,100905.28
2022-09-09T12:32:46.489Z,100899.97
2022-09-09T12:35:21.807Z,100911.59
2022-09-09T12:37:51.643Z,100912.53
2022-09-09T12:40:24.921Z,100902.84
2022-09-09T12:42:52.638Z,100910.81
2022-09-09T12:45:26.396Z,100914.47
2022-09-09T12:47:59.442Z,100912.66
2022-09-09T12:50:32.600Z,100904.78
2022-09-09T12:53:03.619Z,100918.09
2022-09-09T12:55:32.296Z,100918.09
2022-09-09T12:58:00.793Z,100918.09
2022-09-09T13:00:28.362Z,100922.66
2022-09-09T13:03:03.753Z,100926.19
2022-09-09T13:05:40.133Z,100928.00
2022-09-09T13:08:12.703Z,100925.34
2022-09-09T13:11:00.127Z,100935.13
2022-09-09T13:13:36.482Z,100934.28
2022-09-09T13:16:06.873Z,100939.59
2022-09-09T13:18:39.742Z,100944.91
2022-09-09T13:21:06.728Z,100937.91
2022-09-09T13:23:36.565Z,100939.50
2022-09-09T13:26:08.956Z,100941.31
2022-09-09T13:28:36.380Z,100934.28
2022-09-09T13:31:20.927Z,100938.66
2022-09-09T13:33:47.933Z,100939.59
2022-09-09T13:36:18.528Z,100934.28
2022-09-09T13:39:00.905Z,100938.75
2022-09-09T13:41:34.933Z,100952.06
2022-09-09T13:44:03.884Z,100955.69
2022-09-09T13:46:40.385Z,100953.13
2022-09-09T13:49:10.258Z,100955.03
2022-09-09T13:51:38.837Z,100952.38
2022-09-09T13:54:11.453Z,100953.22
2022-09-09T13:56:40.232Z,100955.91
2022-09-09T13:59:13.023Z,100955.91
2022-09-09T14:01:40.045Z,100960.47
2022-09-09T14:04:07.873Z,100967.50
2022-09-09T14:06:39.534Z,100972.81
2022-09-09T14:09:07.675Z,100971.13
2022-09-09T14:11:34.904Z,100978.25
2022-09-09T14:14:02.246Z,100983.47
2022-09-09T14:16:29.389Z,100973.78
2022-09-09T14:19:00.504Z,100968.47
2022-09-09T14:21:27.666Z,100973.06
2022-09-09T14:23:54.991Z,100970.47
2022-09-09T14:26:25.591Z,100970.47
2022-09-09T14:28:55.577Z,100971.44
2022-09-09T14:31:24.791Z,100971.44
2022-09-09T14:33:52.369Z,100971.53
2022-09-09T14:36:19.922Z,100966.22
2022-09-09T14:38:47.348Z,100967.16
2022-09-09T14:41:20.054Z,100980.47
2022-09-09T14:43:47.727Z,100970.06
2022-09-09T14:46:17.657Z,100977.06
2022-09-09T14:48:46.512Z,100981.53
2022-09-09T14:51:17.071Z,100986.03
2022-09-09T14:53:45.525Z,100983.38
2022-09-09T14:56:15.774Z,100990.50
2022-09-09T14:58:43.700Z,100988.78
2022-09-09T15:01:13.449Z,100990.50
2022-09-09T15:03:42.069Z,100993.25
2022-09-09T15:06:10.884Z,100997.75
2022-09-09T15:08:42.443Z,100992.41
2022-09-09T15:11:11.624Z,100994.31
2022-09-09T15:13:40.603Z,100997.81
2022-09-09T15:16:16.987Z,100997.81
2022-09-09T15:18:46.253Z,100997.94
2022-09-09T15:21:13.913Z,101001.56
2022-09-09T15:23:41.209Z,101003.28
2022-09-09T15:26:08.906Z,100992.72
2022-09-09T15:28:38.710Z,101004.22
2022-09-09T15:31:12.665Z,101010.47
2022-09-09T15:33:39.688Z,101013.13
2022-09-09T15:36:26.697Z,101008.78
2022-09-09T15:38:54.275Z,101014.97
2022-09-09T15:41:23.107Z,101020.31
2022-09-09T15:43:57.909Z,101017.72
2022-09-09T15:46:42.370Z,101016.03
2022-09-09T15:49:12.144Z,101019.53
2022-09-09T15:51:43.132Z,101016.03
2022-09-09T15:54:18.087Z,101017.72
2022-09-09T15:56:47.461Z,101014.31
2022-09-09T15:59:16.001Z,101012.59
2022-09-09T16:01:44.446Z,101014.31
2022-09-09T16:04:11.946Z,101015.25
2022-09-09T16:06:38.916Z,101014.31
2022-09-09T16:09:08.239Z,101013.63
2022-09-09T16:11:38.131Z,101023.84
2022-09-09T16:14:05.306Z,101027.25
2022-09-09T16:16:32.650Z,101032.47
2022-09-09T16:19:02.978Z,101026.31
2022-09-09T16:21:36.394Z,101029.72
2022-09-09T16:24:05.271Z,101027.06
2022-09-09T16:26:35.853Z,101029.59
2022-09-09T16:29:04.065Z,101039.38
2022-09-09T16:31:33.525Z,101040.16
2022-09-09T16:34:01.052Z,101050.03
2022-09-09T16:36:32.853Z,101053.53
2022-09-09T16:39:02.031Z,101050.03
2022-09-09T16:41:30.068Z,101053.47
2022-09-09T16:43:59.534Z,101049.84
2022-09-09T16:46:28.922Z,101056.91
2022-09-09T16:48:59.720Z,101047.13
2022-09-09T16:51:28.541Z,101043.59
2022-09-09T16:53:56.531Z,101054.25
2022-09-09T16:56:28.530Z,101047.97
2022-09-09T16:59:00.703Z,101053.31
2022-09-09T17:01:31.081Z,101047.97
2022-09-09T17:04:06.920Z,101049.66
2022-09-09T17:06:38.727Z,101058.50
2022-09-09T17:09:08.819Z,101046.63
2022-09-09T17:11:37.016Z,101070.97
2022-09-09T17:14:04.616Z,101072.69
2022-09-09T17:16:33.348Z,101079.69
2022-09-09T17:19:00.631Z,101076.28
2022-09-09T17:21:29.592Z,101075.34
2022-09-09T17:23:58.010Z,101080.75
2022-09-09T17:26:28.722Z,101078.94
2022-09-09T17:28:59.471Z,101079.81
2022-09-09T17:31:28.744Z,101083.31
2022-09-09T17:33:56.788Z,101090.34
2022-09-09T17:36:32.996Z,101090.34
2022-09-09T17:39:05.438Z,101089.50
2022-09-09T17:41:38.067Z,101090.34
2022-09-09T17:44:11.082Z,101097.56
2022-09-09T17:46:43.100Z,101096.81
2022-09-09T17:49:13.626Z,101104.03
2022-09-09T17:51:42.801Z,101107.56
2022-09-09T17:54:13.708Z,101118.00
2022-09-09T17:56:42.528Z,101118.88
2022-09-09T17:59:13.385Z,101120.88
2022-09-09T18:01:45.192Z,101118.88
2022-09-09T18:04:14.491Z,101120.59
2022-09-09T18:06:48.444Z,101122.28
2022-09-09T18:09:18.651Z,101124.94
2022-09-09T18:11:51.612Z,101132.91
2022-09-09T18:14:21.880Z,101124.94
2022-09-09T18:16:49.664Z,101127.72
2022-09-09T18:19:20.596Z,101130.25
2022-09-09T18:21:48.182Z,101134.56
2022-09-09T18:24:17.925Z,101129.31
2022-09-09T18:26:46.033Z,101135.50
2022-09-09T18:29:16.943Z,101136.34
2022-09-09T18:31:44.861Z,101134.56
2022-09-09T18:34:13.760Z,101137.31
2022-09-09T18:36:47.131Z,101141.75
2022-09-09T18:39:17.592Z,101138.03
2022-09-09T18:41:50.671Z,101139.75
2022-09-09T18:44:21.953Z,101142.44
2022-09-09T18:46:54.348Z,101148.69
2022-09-09T18:49:24.832Z,101151.34
2022-09-09T18:51:52.465Z,101152.13
2022-09-09T18:54:26.164Z,101149.47
2022-09-09T18:56:56.635Z,101156.19
2022-09-09T18:59:24.656Z,101155.34
2022-09-09T19:01:53.711Z,101160.56
2022-09-09T19:04:22.966Z,101161.41
2022-09-09T19:06:52.759Z,101167.88
2022-09-09T19:09:20.007Z,101171.25
2022-09-09T19:11:47.784Z,101172.00
2022-09-09T19:14:17.099Z,101181.41
2022-09-09T19:16:46.109Z,101181.22
2022-09-09T19:19:17.246Z,101174.00
2022-09-09T19:21:46.023Z,101181.06
2022-09-09T19:24:20.304Z,101181.22
2022-09-09T19:26:50.342Z,101185.44
2022-09-09T19:29:23.649Z,101181.22
2022-09-09T19:34:40.759Z,101186.16
2022-09-09T19:37:08.218Z,101188.72
2022-09-09T19:39:35.665Z,101193.00
2022-09-09T19:42:02.757Z,101190.13
2022-09-09T19:44:30.012Z,101188.81
2022-09-09T19:46:57.863Z,101198.44
2022-09-09T19:49:26.226Z,101192.06
2022-09-09T19:51:58.054Z,101193.66
2022-09-09T19:54:25.779Z,101193.56
2022-09-09T19:56:57.372Z,101195.28
2022-09-09T19:59:24.484Z,101198.56
2022-09-09T20:01:52.201Z,101196.78
2022-09-09T20:04:21.301Z,101204.56
2022-09-09T20:06:49.786Z,101212.56
2022-09-09T20:09:20.032Z,101208.94
2022-09-09T20:11:48.954Z,101218.53
2022-09-09T20:14:18.054Z,101216.72
2022-09-09T20:16:47.311Z,101218.44
2022-09-09T20:19:16.919Z,101225.38
2022-09-09T20:21:48.977Z,101223.56
2022-09-09T20:24:19.879Z,101219.97
2022-09-09T20:26:49.448Z,101232.31
2022-09-09T20:29:19.413Z,101229.63
2022-09-09T20:31:49.437Z,101239.34
2022-09-09T20:34:19.441Z,101229.56
2022-09-09T20:36:47.237Z,101233.03
2022-09-09T20:39:17.549Z,101234.88
2022-09-09T20:41:46.743Z,101238.38
2022-09-09T20:44:25.452Z,101244.56
2022-09-09T20:46:57.786Z,101246.38
2022-09-09T20:49:26.166Z,101233.91
2022-09-09T20:51:56.132Z,101243.44
2022-09-09T20:54:26.471Z,101242.69
2022-09-09T20:56:55.697Z,101242.88
2022-09-09T20:59:25.158Z,101238.28
2022-09-09T21:01:53.362Z,101238.38
2022-09-09T21:04:22.454Z,101248.09
2022-09-09T21:06:53.279Z,101254.34
2022-09-09T21:09:23.746Z,101243.16
2022-09-09T21:11:56.597Z,101242.00
2022-09-09T21:14:24.897Z,101250.00
2022-09-09T21:16:54.995Z,101250.88
2022-09-09T21:19:22.427Z,101246.59
2022-09-09T21:21:49.730Z,101248.66
2022-09-09T21:24:17.764Z,101245.19
2022-09-09T21:26:45.118Z,101248.88
2022-09-09T21:29:14.266Z,101248.03
2022-09-09T21:31:43.656Z,101253.25
2022-09-09T21:34:10.981Z,101262.09
2022-09-09T21:36:38.153Z,101266.66
2022-09-09T21:39:05.380Z,101267.81
2022-09-09T21:41:32.699Z,101273.31
2022-09-09T21:43:59.921Z,101275.34
2022-09-09T21:46:28.486Z,101272.75
2022-09-09T21:48:58.716Z,101267.53
2022-09-09T21:51:28.853Z,101268.47
2022-09-09T21:53:57.034Z,101273.06
2022-09-09T21:56:24.720Z,101274.00
2022-09-09T21:58:57.196Z,101281.22
2022-09-09T22:01:25.227Z,101272.38
2022-09-09T22:03:52.435Z,101276.75
2022-09-09T22:06:19.838Z,101269.84
2022-09-09T22:08:48.308Z,101277.03
2022-09-09T22:11:19.281Z,101266.66
2022-09-09T22:13:49.420Z,101271.16
2022-09-09T22:16:19.363Z,101270.38
2022-09-09T22:18:51.989Z,101275.91
2022-09-09T22:21:20.344Z,101274.19
2022-09-09T22:23:59.286Z,101283.09
2022-09-09T22:26:28.189Z,101280.56
2022-09-09T22:28:57.520Z,101283.28
2022-09-09T22:31:27.373Z,101284.06
2022-09-09T22:33:54.769Z,101290.34
2022-09-09T22:36:21.807Z,101285.19
2022-09-09T22:38:50.196Z,101281.78
2022-09-09T22:41:19.041Z,101279.19
2022-09-09T22:43:46.870Z,101285.50
2022-09-09T22:46:14.158Z,101278.75
2022-09-09T22:48:41.292Z,101283.13
2022-09-09T22:51:14.374Z,101283.19
2022-09-09T22:53:42.621Z,101285.00
2022-09-09T22:56:14.487Z,101284.25
2022-09-09T22:58:41.778Z,101285.19
2022-09-09T23:01:15.721Z,101284.44
2022-09-09T23:03:46.440Z,101290.59
2022-09-09T23:06:22.653Z,101290.72
2022-09-09T23:08:52.368Z,101286.22
2022-09-09T23:11:19.427Z,101290.59
2022-09-09T23:13:52.824Z,101289.94
2022-09-09T23:16:23.225Z,101298.13
2022-09-09T23:18:52.454Z,101305.06
2022-09-09T23:21:19.926Z,101292.69
2022-09-09T23:23:46.878Z,101298.19
2022-09-09T23:26:19.350Z,101298.19
2022-09-09T23:28:48.117Z,101307.13
2022-09-09T23:31:20.151Z,101299.25
2022-09-09T23:33:48.316Z,101308.16
2022-09-09T23:36:19.429Z,101308.16
2022-09-09T23:38:46.659Z,101292.19
2022-09-09T23:41:21.372Z,101308.16
2022-09-09T23:43:52.905Z,101304.66
2022-09-09T23:46:22.846Z,101308.38
2022-09-09T23:48:53.004Z,101307.50
2022-09-09T23:51:24.202Z,101309.31
2022-09-09T23:53:53.547Z,101303.22
2022-09-09T23:56:22.022Z,101307.59
2022-09-09T23:58:50.216Z,101313.88
